Ash Grove, Nebraska
Current Conditions -  °F | °C
As of 12:55 AM on Thursday 27 Nov 2014 (Local Time) from KHDE Reporting Station
Broken Clouds Broken Clouds  
Wind Chill: 15°   Ceiling: 9000
Heat Index: 23°   Visibility: 10mi
Dew Point: 16°   Wind: 6mph
Humidity: 76%   Direction: 60°ENE
Pressure: 30.4"   Gusts: NA
Location:  40.1734°N, 98.8989°W
Report Text: KHDE 270655Z AUTO 06005KT 10SM BKN090 M05/M09 A3040 RMK AO2 T10521089
Loading
Personal Weather Stations






























Interactive Weather Map New forecast layout! Learn more

10-Day Weather Forecast

Advertisements
Track Severe Weather on mobile